This is the latest recevied weather packets stored in our database for station/object NG7M. If no packets are shown the sender has not sent any weather packets the latest 10 day(s).
| Time | Temp. | Humidity | Pressure | Rain* | Wind** | Luminosity | Snow |
|---|---|---|---|---|---|---|---|
| 1777335304 | 7.22° C | 72% | 1012.9 hPa | 0 mm | - | - | - |
| 1777333504 | 7.22° C | 70% | 1012.7 hPa | 0 mm | - | - | - |
| 1777330804 | 7.78° C | 58% | 1012.4 hPa | 0 mm | - | - | - |
| 1777329603 | 8.33° C | 52% | 1012.4 hPa | 0 mm | - | - | - |
| 1777328104 | 8.89° C | 46% | 1012.2 hPa | 0 mm | - | - | - |
| 1777326904 | 8.89° C | 46% | 1012.3 hPa | 0 mm | - | - | - |
| 1777325403 | 8.89° C | 44% | 1012.4 hPa | 0 mm | - | - | - |
| 1777323603 | 9.44° C | 40% | 1012.3 hPa | 0 mm | - | - | - |
| 1777322103 | 8.89° C | 42% | 1012.4 hPa | 0 mm | - | - | - |
| 1777321803 | 9.44° C | 43% | 1012.4 hPa | 0 mm | - | - | - |
| 1777315804 | 7.78° C | 60% | 1012.9 hPa | 0 mm | - | - | - |
| 1777314004 | 7.22° C | 75% | 1012.9 hPa | 0 mm | - | - | - |
| 1777310704 | 5.56° C | 86% | 1012.9 hPa | 0.25 mm | - | - | - |
| 1777310104 | 5.56° C | 86% | 1012.9 hPa | 0.25 mm | - | - | - |
| 1777308904 | 5° C | 88% | 1013 hPa | 0.51 mm | - | - | - |
| 1777308603 | 5° C | 88% | 1013 hPa | 0.51 mm | - | - | - |
| 1777306204 | 4.44° C | 88% | 1012.9 hPa | 1.52 mm | - | - | - |
| 1777305304 | 4.44° C | 88% | 1012.9 hPa | 1.52 mm | - | - | - |
| 1777304103 | 3.89° C | 87% | 1012.9 hPa | 1.02 mm | - | - | - |
| 1777301404 | 4.44° C | 86% | 1012.3 hPa | 0 mm | - | - | - |
| 1777298404 | 4.44° C | 86% | 1011.7 hPa | 0 mm | - | - | - |
| 1777297204 | 4.44° C | 87% | 1011.2 hPa | 0 mm | - | - | - |
| 1777294503 | 4.44° C | 86% | 1010.9 hPa | 0 mm | - | - | - |
| 1777289404 | 5° C | 88% | 1010.2 hPa | 0 mm | - | - | - |
| 1777288804 | 5° C | 88% | 1010.2 hPa | 0 mm | - | - | - |
* Rain latest hour (hover to see other rain measurements)
** Current wind speed in m/s (hover to see current wind gust speed)